sensor_id;sensor_type;location;lat;lon;timestamp;pressure;altitude;pressure_sealevel;temperature;humidity
58239;BME280;44037;55.638;37.356;2022-09-09T00:00:56;99873.50;;;5.78;79.87
58239;BME280;44037;55.638;37.356;2022-09-09T00:03:26;99869.03;;;5.73;80.62
58239;BME280;44037;55.638;37.356;2022-09-09T00:05:59;99887.84;;;5.72;80.80
58239;BME280;44037;55.638;37.356;2022-09-09T00:08:41;99875.63;;;5.64;80.52
58239;BME280;44037;55.638;37.356;2022-09-09T00:11:16;99876.38;;;5.62;80.79
58239;BME280;44037;55.638;37.356;2022-09-09T00:13:52;99879.72;;;5.59;80.65
58239;BME280;44037;55.638;37.356;2022-09-09T00:16:24;99872.72;;;5.55;81.66
58239;BME280;44037;55.638;37.356;2022-09-09T00:18:57;99882.19;;;5.56;81.66
58239;BME280;44037;55.638;37.356;2022-09-09T00:21:32;99887.31;;;5.56;80.93
58239;BME280;44037;55.638;37.356;2022-09-09T00:24:11;99893.28;;;5.55;81.53
58239;BME280;44037;55.638;37.356;2022-09-09T00:26:47;99880.44;;;5.55;80.94
58239;BME280;44037;55.638;37.356;2022-09-09T00:29:22;99883.88;;;5.54;81.03
58239;BME280;44037;55.638;37.356;2022-09-09T00:31:54;99889.81;;;5.53;81.61
58239;BME280;44037;55.638;37.356;2022-09-09T00:34:26;99887.25;;;5.53;81.22
58239;BME280;44037;55.638;37.356;2022-09-09T00:36:55;99884.72;;;5.54;82.00
58239;BME280;44037;55.638;37.356;2022-09-09T00:39:29;99885.66;;;5.57;81.21
58239;BME280;44037;55.638;37.356;2022-09-09T00:42:08;99895.00;;;5.54;81.07
58239;BME280;44037;55.638;37.356;2022-09-09T00:44:46;99897.53;;;5.53;81.98
58239;BME280;44037;55.638;37.356;2022-09-09T00:47:32;99896.75;;;5.56;81.10
58239;BME280;44037;55.638;37.356;2022-09-09T00:50:08;99900.09;;;5.53;80.96
58239;BME280;44037;55.638;37.356;2022-09-09T00:52:42;99903.53;;;5.53;81.70
58239;BME280;44037;55.638;37.356;2022-09-09T00:55:15;99903.56;;;5.55;81.58
58239;BME280;44037;55.638;37.356;2022-09-09T00:57:44;99911.41;;;5.58;81.96
58239;BME280;44037;55.638;37.356;2022-09-09T01:00:22;99913.16;;;5.59;81.67
58239;BME280;44037;55.638;37.356;2022-09-09T01:02:56;99903.78;;;5.61;82.46
58239;BME280;44037;55.638;37.356;2022-09-09T01:05:30;99907.22;;;5.62;81.44
58239;BME280;44037;55.638;37.356;2022-09-09T01:08:02;99906.38;;;5.61;82.26
58239;BME280;44037;55.638;37.356;2022-09-09T01:10:38;99915.81;;;5.62;81.87
58239;BME280;44037;55.638;37.356;2022-09-09T01:13:13;99915.00;;;5.63;81.10
58239;BME280;44037;55.638;37.356;2022-09-09T01:15:43;99917.63;;;5.65;81.62
58239;BME280;44037;55.638;37.356;2022-09-09T01:18:13;99920.25;;;5.66;81.75
58239;BME280;44037;55.638;37.356;2022-09-09T01:20:49;99916.00;;;5.68;81.48
58239;BME280;44037;55.638;37.356;2022-09-09T01:23:39;99928.03;;;5.69;80.83
58239;BME280;44037;55.638;37.356;2022-09-09T01:26:19;99930.53;;;5.66;80.95
58239;BME280;44037;55.638;37.356;2022-09-09T01:28:50;99923.66;;;5.65;81.45
58239;BME280;44037;55.638;37.356;2022-09-09T01:31:21;99932.06;;;5.61;81.26
58239;BME280;44037;55.638;37.356;2022-09-09T01:33:49;99932.75;;;5.56;82.08
58239;BME280;44037;55.638;37.356;2022-09-09T01:36:26;99933.44;;;5.51;82.22
58239;BME280;44037;55.638;37.356;2022-09-09T01:38:56;99935.16;;;5.51;82.61
58239;BME280;44037;55.638;37.356;2022-09-09T01:41:25;99941.16;;;5.51;82.61
58239;BME280;44037;55.638;37.356;2022-09-09T01:43:52;99939.47;;;5.52;82.31
58239;BME280;44037;55.638;37.356;2022-09-09T01:46:21;99939.41;;;5.50;81.84
58239;BME280;44037;55.638;37.356;2022-09-09T01:48:50;99950.50;;;5.49;82.32
58239;BME280;44037;55.638;37.356;2022-09-09T01:51:18;99948.81;;;5.50;82.13
58239;BME280;44037;55.638;37.356;2022-09-09T01:53:45;99945.38;;;5.49;82.31
58239;BME280;44037;55.638;37.356;2022-09-09T01:56:22;99948.72;;;5.47;82.61
58239;BME280;44037;55.638;37.356;2022-09-09T01:59:10;99949.38;;;5.41;82.72
58239;BME280;44037;55.638;37.356;2022-09-09T02:01:46;99956.81;;;5.33;82.07
58239;BME280;44037;55.638;37.356;2022-09-09T02:04:27;99955.78;;;5.28;83.28
58239;BME280;44037;55.638;37.356;2022-09-09T02:06:58;99961.75;;;5.27;83.71
58239;BME280;44037;55.638;37.356;2022-09-09T02:09:26;99962.31;;;5.20;83.41
58239;BME280;44037;55.638;37.356;2022-09-09T02:11:59;99956.22;;;5.16;83.58
58239;BME280;44037;55.638;37.356;2022-09-09T02:14:32;99968.06;;;5.13;84.69
58239;BME280;44037;55.638;37.356;2022-09-09T02:17:07;99962.00;;;5.11;84.66
58239;BME280;44037;55.638;37.356;2022-09-09T02:19:38;99963.63;;;5.08;84.47
58239;BME280;44037;55.638;37.356;2022-09-09T02:22:06;99965.34;;;5.08;84.50
58239;BME280;44037;55.638;37.356;2022-09-09T02:24:35;99965.22;;;5.05;84.56
58239;BME280;44037;55.638;37.356;2022-09-09T02:27:05;99976.34;;;5.05;84.38
58239;BME280;44037;55.638;37.356;2022-09-09T02:29:38;99971.13;;;5.02;85.30
58239;BME280;44037;55.638;37.356;2022-09-09T02:32:08;99975.34;;;5.00;85.47
58239;BME280;44037;55.638;37.356;2022-09-09T02:34:42;99974.41;;;4.98;85.34
58239;BME280;44037;55.638;37.356;2022-09-09T02:37:11;99979.38;;;4.94;85.71
58239;BME280;44037;55.638;37.356;2022-09-09T02:39:38;99981.94;;;4.94;85.67
58239;BME280;44037;55.638;37.356;2022-09-09T02:42:05;99981.03;;;4.93;85.76
58239;BME280;44037;55.638;37.356;2022-09-09T02:44:35;99989.47;;;4.89;85.95
58239;BME280;44037;55.638;37.356;2022-09-09T02:47:21;99986.81;;;4.87;85.51
58239;BME280;44037;55.638;37.356;2022-09-09T02:50:00;99992.03;;;4.89;86.47
58239;BME280;44037;55.638;37.356;2022-09-09T02:52:36;99990.22;;;4.86;86.11
58239;BME280;44037;55.638;37.356;2022-09-09T02:55:11;99993.59;;;4.85;85.85
58239;BME280;44037;55.638;37.356;2022-09-09T02:57:41;99996.34;;;4.90;85.59
58239;BME280;44037;55.638;37.356;2022-09-09T03:00:13;100000.56;;;4.88;86.00
58239;BME280;44037;55.638;37.356;2022-09-09T03:02:40;100006.63;;;4.90;86.12
58239;BME280;44037;55.638;37.356;2022-09-09T03:05:08;99996.44;;;4.93;85.57
58239;BME280;44037;55.638;37.356;2022-09-09T03:07:35;100003.41;;;4.96;85.53
58239;BME280;44037;55.638;37.356;2022-09-09T03:10:02;99999.91;;;4.94;85.47
58239;BME280;44037;55.638;37.356;2022-09-09T03:12:29;100004.16;;;4.93;86.03
58239;BME280;44037;55.638;37.356;2022-09-09T03:14:59;100010.22;;;4.95;85.77
58239;BME280;44037;55.638;37.356;2022-09-09T03:17:27;100010.22;;;4.95;86.24
58239;BME280;44037;55.638;37.356;2022-09-09T03:19:54;100015.44;;;4.97;85.35
58239;BME280;44037;55.638;37.356;2022-09-09T03:22:24;100013.69;;;4.96;85.04
58239;BME280;44037;55.638;37.356;2022-09-09T03:24:51;100012.78;;;4.95;85.62
58239;BME280;44037;55.638;37.356;2022-09-09T03:27:19;100011.84;;;4.93;85.69
58239;BME280;44037;55.638;37.356;2022-09-09T03:29:46;100008.47;;;4.94;85.86
58239;BME280;44037;55.638;37.356;2022-09-09T03:32:17;100015.44;;;4.97;85.50
58239;BME280;44037;55.638;37.356;2022-09-09T03:34:45;100023.88;;;4.94;85.42
58239;BME280;44037;55.638;37.356;2022-09-09T03:37:15;100029.75;;;4.90;85.31
58239;BME280;44037;55.638;37.356;2022-09-09T03:39:43;100020.16;;;4.86;84.96
58239;BME280;44037;55.638;37.356;2022-09-09T03:42:12;100037.19;;;4.84;84.85
58239;BME280;44037;55.638;37.356;2022-09-09T03:44:44;100043.22;;;4.84;85.46
58239;BME280;44037;55.638;37.356;2022-09-09T03:47:11;100034.88;;;4.90;85.71
58239;BME280;44037;55.638;37.356;2022-09-09T03:49:38;100034.91;;;4.91;85.59
58239;BME280;44037;55.638;37.356;2022-09-09T03:52:08;100029.84;;;4.93;85.71
58239;BME280;44037;55.638;37.356;2022-09-09T03:54:35;100034.28;;;4.97;85.31
58239;BME280;44037;55.638;37.356;2022-09-09T03:57:02;100030.91;;;4.98;85.36
58239;BME280;44037;55.638;37.356;2022-09-09T03:59:30;100039.53;;;5.00;84.67
58239;BME280;44037;55.638;37.356;2022-09-09T04:01:57;100039.66;;;5.03;84.44
58239;BME280;44037;55.638;37.356;2022-09-09T04:04:25;100039.66;;;5.03;85.36
58239;BME280;44037;55.638;37.356;2022-09-09T04:06:53;100054.44;;;5.09;84.65
58239;BME280;44037;55.638;37.356;2022-09-09T04:09:21;100046.81;;;5.12;84.79
58239;BME280;44037;55.638;37.356;2022-09-09T04:11:48;100050.44;;;5.17;84.50
58239;BME280;44037;55.638;37.356;2022-09-09T04:14:16;100054.00;;;5.21;83.36
58239;BME280;44037;55.638;37.356;2022-09-09T04:16:43;100054.13;;;5.24;83.96
58239;BME280;44037;55.638;37.356;2022-09-09T04:19:10;100054.16;;;5.26;83.73
58239;BME280;44037;55.638;37.356;2022-09-09T04:21:38;100059.47;;;5.30;84.05
58239;BME280;44037;55.638;37.356;2022-09-09T04:24:06;100052.81;;;5.35;83.53
58239;BME280;44037;55.638;37.356;2022-09-09T04:26:36;100060.78;;;5.42;83.49
58239;BME280;44037;55.638;37.356;2022-09-09T04:29:04;100050.81;;;5.51;83.42
58239;BME280;44037;55.638;37.356;2022-09-09T04:31:33;100051.09;;;5.59;83.32
58239;BME280;44037;55.638;37.356;2022-09-09T04:34:00;100056.31;;;5.62;81.97
58239;BME280;44037;55.638;37.356;2022-09-09T04:36:31;100061.66;;;5.66;81.94
58239;BME280;44037;55.638;37.356;2022-09-09T04:38:58;100061.81;;;5.71;82.39
58239;BME280;44037;55.638;37.356;2022-09-09T04:41:27;100058.50;;;5.75;81.09
58239;BME280;44037;55.638;37.356;2022-09-09T04:43:55;100060.41;;;5.81;81.68
58239;BME280;44037;55.638;37.356;2022-09-09T04:46:22;100061.34;;;5.83;80.62
58239;BME280;44037;55.638;37.356;2022-09-09T04:48:50;100056.44;;;5.89;80.81
58239;BME280;44037;55.638;37.356;2022-09-09T04:51:18;100061.09;;;5.99;80.31
58239;BME280;44037;55.638;37.356;2022-09-09T04:53:45;100057.84;;;6.04;80.03
58239;BME280;44037;55.638;37.356;2022-09-09T04:56:15;100067.53;;;6.12;79.86
58239;BME280;44037;55.638;37.356;2022-09-09T04:58:42;100068.72;;;6.22;80.32
58239;BME280;44037;55.638;37.356;2022-09-09T05:01:13;100066.38;;;6.28;78.95
58239;BME280;44037;55.638;37.356;2022-09-09T05:03:40;100063.88;;;6.32;79.12
58239;BME280;44037;55.638;37.356;2022-09-09T05:06:09;100066.66;;;6.38;79.21
58239;BME280;44037;55.638;37.356;2022-09-09T05:08:38;100069.44;;;6.44;78.33
58239;BME280;44037;55.638;37.356;2022-09-09T05:11:13;100072.06;;;6.45;77.67
58239;BME280;44037;55.638;37.356;2022-09-09T05:13:41;100069.75;;;6.53;77.93
58239;BME280;44037;55.638;37.356;2022-09-09T05:16:08;100072.50;;;6.59;77.51
58239;BME280;44037;55.638;37.356;2022-09-09T05:18:38;100078.81;;;6.68;77.66
58239;BME280;44037;55.638;37.356;2022-09-09T05:21:05;100079.94;;;6.78;77.77
58239;BME280;44037;55.638;37.356;2022-09-09T05:23:32;100085.22;;;6.82;76.26
58239;BME280;44037;55.638;37.356;2022-09-09T05:26:00;100088.84;;;6.87;76.44
58239;BME280;44037;55.638;37.356;2022-09-09T05:28:28;100078.06;;;6.99;76.49
58239;BME280;44037;55.638;37.356;2022-09-09T05:30:59;100084.34;;;7.09;75.59
58239;BME280;44037;55.638;37.356;2022-09-09T05:33:29;100082.03;;;7.18;74.43
58239;BME280;44037;55.638;37.356;2022-09-09T05:36:03;100083.16;;;7.27;74.96
58239;BME280;44037;55.638;37.356;2022-09-09T05:38:31;100084.22;;;7.33;73.93
58239;BME280;44037;55.638;37.356;2022-09-09T05:40:58;100085.38;;;7.43;73.95
58239;BME280;44037;55.638;37.356;2022-09-09T05:43:26;100083.88;;;7.51;73.41
58239;BME280;44037;55.638;37.356;2022-09-09T05:46:02;100082.28;;;7.57;72.32
58239;BME280;44037;55.638;37.356;2022-09-09T05:48:30;100086.00;;;7.66;71.49
58239;BME280;44037;55.638;37.356;2022-09-09T05:50:58;100093.88;;;7.71;71.12
58239;BME280;44037;55.638;37.356;2022-09-09T05:53:27;100083.59;;;7.73;70.27
58239;BME280;44037;55.638;37.356;2022-09-09T05:56:02;100078.59;;;7.79;71.00
58239;BME280;44037;55.638;37.356;2022-09-09T05:58:30;100083.13;;;7.88;70.09
58239;BME280;44037;55.638;37.356;2022-09-09T06:01:02;100094.47;;;7.93;69.09
58239;BME280;44037;55.638;37.356;2022-09-09T06:03:29;100097.22;;;8.00;69.77
58239;BME280;44037;55.638;37.356;2022-09-09T06:06:00;100093.97;;;8.06;69.15
58239;BME280;44037;55.638;37.356;2022-09-09T06:08:32;100099.19;;;8.09;68.95
58239;BME280;44037;55.638;37.356;2022-09-09T06:11:03;100098.53;;;8.17;69.23
58239;BME280;44037;55.638;37.356;2022-09-09T06:13:31;100098.53;;;8.17;66.64
58239;BME280;44037;55.638;37.356;2022-09-09T06:15:58;100103.91;;;8.24;67.01
58239;BME280;44037;55.638;37.356;2022-09-09T06:18:26;100104.13;;;8.34;67.24
58239;BME280;44037;55.638;37.356;2022-09-09T06:20:54;100111.16;;;8.39;64.73
58239;BME280;44037;55.638;37.356;2022-09-09T06:23:21;100101.91;;;8.48;64.74
58239;BME280;44037;55.638;37.356;2022-09-09T06:25:49;100103.84;;;8.55;64.16
58239;BME280;44037;55.638;37.356;2022-09-09T06:28:17;100105.72;;;8.62;63.01
58239;BME280;44037;55.638;37.356;2022-09-09T06:30:44;100102.47;;;8.69;63.69
58239;BME280;44037;55.638;37.356;2022-09-09T06:33:12;100106.84;;;8.73;62.32
58239;BME280;44037;55.638;37.356;2022-09-09T06:35:39;100108.75;;;8.81;61.91
58239;BME280;44037;55.638;37.356;2022-09-09T06:38:06;100106.38;;;8.90;62.37
58239;BME280;44037;55.638;37.356;2022-09-09T06:40:34;100098.59;;;8.88;61.72
58239;BME280;44037;55.638;37.356;2022-09-09T06:43:03;100115.72;;;8.83;60.93
58239;BME280;44037;55.638;37.356;2022-09-09T06:45:31;100114.22;;;8.93;59.72
58239;BME280;44037;55.638;37.356;2022-09-09T06:47:58;100116.84;;;8.96;58.88
58239;BME280;44037;55.638;37.356;2022-09-09T06:50:25;100121.19;;;8.97;58.39
58239;BME280;44037;55.638;37.356;2022-09-09T06:52:52;100126.50;;;9.03;57.14
58239;BME280;44037;55.638;37.356;2022-09-09T06:55:19;100127.44;;;9.05;57.45
58239;BME280;44037;55.638;37.356;2022-09-09T06:57:47;100143.31;;;9.22;56.96
58239;BME280;44037;55.638;37.356;2022-09-09T07:00:15;100129.59;;;9.25;56.13
58239;BME280;44037;55.638;37.356;2022-09-09T07:02:42;100130.00;;;9.44;57.30
58239;BME280;44037;55.638;37.356;2022-09-09T07:05:10;100123.78;;;9.78;57.11
58239;BME280;44037;55.638;37.356;2022-09-09T07:07:37;100120.59;;;9.90;54.89
58239;BME280;44037;55.638;37.356;2022-09-09T07:10:05;100125.94;;;9.99;55.51
58239;BME280;44037;55.638;37.356;2022-09-09T07:12:33;100135.47;;;10.02;54.47
58239;BME280;44037;55.638;37.356;2022-09-09T07:15:00;100125.75;;;9.89;52.63
58239;BME280;44037;55.638;37.356;2022-09-09T07:17:28;100136.03;;;9.87;54.17
58239;BME280;44037;55.638;37.356;2022-09-09T07:19:55;100146.44;;;9.89;52.47
58239;BME280;44037;55.638;37.356;2022-09-09T07:22:23;100139.63;;;9.92;53.10
58239;BME280;44037;55.638;37.356;2022-09-09T07:24:50;100151.06;;;10.05;52.38
58239;BME280;44037;55.638;37.356;2022-09-09T07:27:17;100144.19;;;10.06;50.87
58239;BME280;44037;55.638;37.356;2022-09-09T07:29:44;100144.97;;;10.02;50.63
58239;BME280;44037;55.638;37.356;2022-09-09T07:32:12;100154.56;;;10.07;51.50
58239;BME280;44037;55.638;37.356;2022-09-09T07:34:40;100161.41;;;10.05;51.11
58239;BME280;44037;55.638;37.356;2022-09-09T07:37:07;100161.56;;;10.13;51.74
58239;BME280;44037;55.638;37.356;2022-09-09T07:39:37;100155.19;;;10.38;52.09
58239;BME280;44037;55.638;37.356;2022-09-09T07:42:04;100158.84;;;10.51;51.32
58239;BME280;44037;55.638;37.356;2022-09-09T07:44:32;100150.56;;;10.71;50.28
58239;BME280;44037;55.638;37.356;2022-09-09T07:47:00;100172.38;;;10.85;49.62
58239;BME280;44037;55.638;37.356;2022-09-09T07:49:28;100161.81;;;10.73;48.86
58239;BME280;44037;55.638;37.356;2022-09-09T07:51:56;100170.47;;;10.73;49.63
58239;BME280;44037;55.638;37.356;2022-09-09T07:54:23;100168.66;;;10.68;50.37
58239;BME280;44037;55.638;37.356;2022-09-09T07:56:52;100168.44;;;10.55;49.82
58239;BME280;44037;55.638;37.356;2022-09-09T07:59:19;100171.41;;;10.79;49.86
58239;BME280;44037;55.638;37.356;2022-09-09T08:01:47;100162.44;;;11.13;49.51
58239;BME280;44037;55.638;37.356;2022-09-09T08:04:16;100166.25;;;11.37;48.92
58239;BME280;44037;55.638;37.356;2022-09-09T08:06:46;100168.25;;;11.57;48.71
58239;BME280;44037;55.638;37.356;2022-09-09T08:09:15;100165.38;;;11.36;47.99
58239;BME280;44037;55.638;37.356;2022-09-09T08:11:43;100168.59;;;11.18;48.43
58239;BME280;44037;55.638;37.356;2022-09-09T08:14:11;100161.59;;;11.13;48.44
58239;BME280;44037;55.638;37.356;2022-09-09T08:16:40;100165.63;;;10.97;46.93
58239;BME280;44037;55.638;37.356;2022-09-09T08:19:07;100171.19;;;11.18;48.22
58239;BME280;44037;55.638;37.356;2022-09-09T08:21:36;100171.25;;;11.25;46.55
58239;BME280;44037;55.638;37.356;2022-09-09T08:24:04;100172.94;;;11.19;46.19
58239;BME280;44037;55.638;37.356;2022-09-09T08:26:35;100169.22;;;11.63;46.94
58239;BME280;44037;55.638;37.356;2022-09-09T08:29:05;100176.47;;;11.89;46.59
58239;BME280;44037;55.638;37.356;2022-09-09T08:31:34;100174.72;;;11.90;45.18
58239;BME280;44037;55.638;37.356;2022-09-09T08:34:04;100177.72;;;12.21;46.49
58239;BME280;44037;55.638;37.356;2022-09-09T08:36:33;100165.59;;;12.21;45.43
58239;BME280;44037;55.638;37.356;2022-09-09T08:39:02;100176.97;;;12.31;45.88
58239;BME280;44037;55.638;37.356;2022-09-09T08:41:59;100174.41;;;12.36;45.64
58239;BME280;44037;55.638;37.356;2022-09-09T08:44:42;100171.78;;;12.33;44.82
58239;BME280;44037;55.638;37.356;2022-09-09T08:47:20;100171.19;;;12.60;45.54
58239;BME280;44037;55.638;37.356;2022-09-09T08:50:03;100173.56;;;12.38;44.42
58239;BME280;44037;55.638;37.356;2022-09-09T08:52:39;100185.44;;;12.13;45.10
58239;BME280;44037;55.638;37.356;2022-09-09T08:55:19;100180.72;;;11.86;44.82
58239;BME280;44037;55.638;37.356;2022-09-09T08:57:51;100180.25;;;11.48;45.66
58239;BME280;44037;55.638;37.356;2022-09-09T09:00:20;100184.41;;;11.35;46.43
58239;BME280;44037;55.638;37.356;2022-09-09T09:02:54;100187.88;;;11.37;45.82
58239;BME280;44037;55.638;37.356;2022-09-09T09:05:35;100186.00;;;11.90;45.07
58239;BME280;44037;55.638;37.356;2022-09-09T09:08:08;100188.38;;;12.49;44.84
58239;BME280;44037;55.638;37.356;2022-09-09T09:10:45;100178.28;;;12.80;42.12
58239;BME280;44037;55.638;37.356;2022-09-09T09:13:18;100183.72;;;13.08;42.43
58239;BME280;44037;55.638;37.356;2022-09-09T09:15:50;100166.34;;;13.03;41.82
58239;BME280;44037;55.638;37.356;2022-09-09T09:18:19;100182.78;;;12.96;41.76
58239;BME280;44037;55.638;37.356;2022-09-09T09:20:55;100179.22;;;12.85;43.03
58239;BME280;44037;55.638;37.356;2022-09-09T09:23:31;100188.47;;;12.55;43.93
58239;BME280;44037;55.638;37.356;2022-09-09T09:26:01;100185.34;;;12.05;44.63
58239;BME280;44037;55.638;37.356;2022-09-09T09:28:32;100190.31;;;11.90;46.05
58239;BME280;44037;55.638;37.356;2022-09-09T09:31:03;100185.75;;;11.72;45.96
58239;BME280;44037;55.638;37.356;2022-09-09T09:33:34;100184.00;;;11.72;46.43
58239;BME280;44037;55.638;37.356;2022-09-09T09:36:02;100186.19;;;12.04;46.32
58239;BME280;44037;55.638;37.356;2022-09-09T09:38:34;100179.69;;;12.43;42.53
58239;BME280;44037;55.638;37.356;2022-09-09T09:41:03;100177.44;;;12.81;43.94
58239;BME280;44037;55.638;37.356;2022-09-09T09:43:32;100166.44;;;13.16;42.30
58239;BME280;44037;55.638;37.356;2022-09-09T09:46:03;100157.78;;;13.21;42.65
58239;BME280;44037;55.638;37.356;2022-09-09T09:48:31;100164.81;;;13.33;43.31
58239;BME280;44037;55.638;37.356;2022-09-09T09:51:00;100169.09;;;13.25;42.54
58239;BME280;44037;55.638;37.356;2022-09-09T09:53:30;100160.34;;;13.12;42.92
58239;BME280;44037;55.638;37.356;2022-09-09T09:55:59;100168.22;;;13.23;43.88
58239;BME280;44037;55.638;37.356;2022-09-09T09:58:46;100168.16;;;13.17;42.85
58239;BME280;44037;55.638;37.356;2022-09-09T10:01:21;100178.59;;;13.21;42.27
58239;BME280;44037;55.638;37.356;2022-09-09T10:03:52;100162.88;;;13.06;42.08
58239;BME280;44037;55.638;37.356;2022-09-09T10:06:29;100174.81;;;12.78;42.74
58239;BME280;44037;55.638;37.356;2022-09-09T10:08:56;100172.28;;;12.85;43.72
58239;BME280;44037;55.638;37.356;2022-09-09T10:11:30;100168.81;;;12.86;43.62
58239;BME280;44037;55.638;37.356;2022-09-09T10:14:08;100172.47;;;13.12;43.39
58239;BME280;44037;55.638;37.356;2022-09-09T10:16:50;100188.22;;;13.36;41.59
58239;BME280;44037;55.638;37.356;2022-09-09T10:19:29;100196.72;;;13.11;41.90
58239;BME280;44037;55.638;37.356;2022-09-09T10:22:14;100180.19;;;13.02;42.56
58239;BME280;44037;55.638;37.356;2022-09-09T10:25:11;100183.09;;;13.40;41.89
58239;BME280;44037;55.638;37.356;2022-09-09T10:27:51;100179.63;;;13.41;41.72
58239;BME280;44037;55.638;37.356;2022-09-09T10:30:24;100171.81;;;13.41;43.18
58239;BME280;44037;55.638;37.356;2022-09-09T10:33:01;100183.69;;;13.04;42.43
58239;BME280;44037;55.638;37.356;2022-09-09T10:35:34;100193.69;;;12.61;43.15
58239;BME280;44037;55.638;37.356;2022-09-09T10:38:22;100185.66;;;12.36;43.94
58239;BME280;44037;55.638;37.356;2022-09-09T10:41:06;100201.88;;;12.13;43.99
58239;BME280;44037;55.638;37.356;2022-09-09T10:43:54;100195.06;;;12.23;42.25
58239;BME280;44037;55.638;37.356;2022-09-09T10:46:34;100187.09;;;12.06;42.74
58239;BME280;44037;55.638;37.356;2022-09-09T10:49:13;100195.91;;;12.21;43.22
58239;BME280;44037;55.638;37.356;2022-09-09T10:51:48;100184.03;;;12.46;43.26
58239;BME280;44037;55.638;37.356;2022-09-09T10:54:28;100183.59;;;12.92;42.71
58239;BME280;44037;55.638;37.356;2022-09-09T10:57:03;100184.00;;;13.45;41.16
58239;BME280;44037;55.638;37.356;2022-09-09T10:59:36;100185.78;;;13.55;40.52
58239;BME280;44037;55.638;37.356;2022-09-09T11:02:13;100179.75;;;13.65;40.80
58239;BME280;44037;55.638;37.356;2022-09-09T11:04:49;100169.34;;;13.64;39.27
58239;BME280;44037;55.638;37.356;2022-09-09T11:07:25;100172.84;;;13.71;40.28
58239;BME280;44037;55.638;37.356;2022-09-09T11:09:59;100186.00;;;13.95;40.63
58239;BME280;44037;55.638;37.356;2022-09-09T11:12:30;100183.25;;;13.66;41.87
58239;BME280;44037;55.638;37.356;2022-09-09T11:15:05;100191.66;;;13.31;42.15
58239;BME280;44037;55.638;37.356;2022-09-09T11:17:39;100193.84;;;12.75;43.33
58239;BME280;44037;55.638;37.356;2022-09-09T11:20:11;100189.09;;;12.34;44.43
58239;BME280;44037;55.638;37.356;2022-09-09T11:22:44;100191.84;;;12.46;44.40
58239;BME280;44037;55.638;37.356;2022-09-09T11:25:16;100180.00;;;12.78;43.96
58239;BME280;44037;55.638;37.356;2022-09-09T11:27:54;100187.16;;;13.03;43.75
58239;BME280;44037;55.638;37.356;2022-09-09T11:30:34;100187.47;;;13.45;42.69
58239;BME280;44037;55.638;37.356;2022-09-09T11:33:40;100175.97;;;13.15;43.23
58239;BME280;44037;55.638;37.356;2022-09-09T11:36:25;100183.88;;;13.28;43.35
58239;BME280;44037;55.638;37.356;2022-09-09T11:39:02;100191.56;;;13.14;41.39
58239;BME280;44037;55.638;37.356;2022-09-09T11:41:34;100188.72;;;12.86;42.61
58239;BME280;44037;55.638;37.356;2022-09-09T11:44:10;100186.09;;;12.80;42.71
58239;BME280;44037;55.638;37.356;2022-09-09T11:46:38;100185.94;;;12.63;42.25
58239;BME280;44037;55.638;37.356;2022-09-09T11:49:26;100194.56;;;12.57;42.92
58239;BME280;44037;55.638;37.356;2022-09-09T11:51:54;100185.06;;;12.60;43.35
58239;BME280;44037;55.638;37.356;2022-09-09T11:54:30;100179.84;;;12.59;43.19
58239;BME280;44037;55.638;37.356;2022-09-09T11:56:57;100176.66;;;12.93;42.80
58239;BME280;44037;55.638;37.356;2022-09-09T11:59:26;100180.16;;;12.99;42.48
58239;BME280;44037;55.638;37.356;2022-09-09T12:01:56;100181.09;;;13.03;42.97
58239;BME280;44037;55.638;37.356;2022-09-09T12:04:34;100171.59;;;13.13;42.51
58239;BME280;44037;55.638;37.356;2022-09-09T12:07:05;100176.03;;;13.23;42.38
58239;BME280;44037;55.638;37.356;2022-09-09T12:09:52;100174.50;;;13.53;42.52
58239;BME280;44037;55.638;37.356;2022-09-09T12:12:28;100177.94;;;13.49;41.94
58239;BME280;44037;55.638;37.356;2022-09-09T12:15:17;100176.78;;;13.08;41.95
58239;BME280;44037;55.638;37.356;2022-09-09T12:17:47;100185.19;;;12.79;42.28
58239;BME280;44037;55.638;37.356;2022-09-09T12:20:19;100177.81;;;12.30;42.91
58239;BME280;44037;55.638;37.356;2022-09-09T12:25:57;100191.78;;;12.41;42.40
58239;BME280;44037;55.638;37.356;2022-09-09T12:28:39;100179.00;;;12.62;42.00
58239;BME280;44037;55.638;37.356;2022-09-09T12:31:11;100180.91;;;12.83;41.61
58239;BME280;44037;55.638;37.356;2022-09-09T12:33:44;100176.75;;;13.03;41.84
58239;BME280;44037;55.638;37.356;2022-09-09T12:36:16;100175.97;;;13.15;41.47
58239;BME280;44037;55.638;37.356;2022-09-09T12:38:46;100185.34;;;12.95;42.37
58239;BME280;44037;55.638;37.356;2022-09-09T12:41:21;100183.41;;;12.73;44.00
58239;BME280;44037;55.638;37.356;2022-09-09T12:43:49;100203.31;;;12.70;43.85
58239;BME280;44037;55.638;37.356;2022-09-09T12:46:23;100196.00;;;12.28;44.80
58239;BME280;44037;55.638;37.356;2022-09-09T12:48:52;100191.56;;;12.20;44.96
58239;BME280;44037;55.638;37.356;2022-09-09T12:51:25;100187.97;;;12.08;46.38
58239;BME280;44037;55.638;37.356;2022-09-09T12:53:54;100180.16;;;12.07;46.53
58239;BME280;44037;55.638;37.356;2022-09-09T12:56:23;100180.94;;;12.01;45.63
58239;BME280;44037;55.638;37.356;2022-09-09T12:58:53;100193.69;;;11.86;45.57
58239;BME280;44037;55.638;37.356;2022-09-09T13:01:24;100192.69;;;11.73;45.92
58239;BME280;44037;55.638;37.356;2022-09-09T13:03:52;100195.22;;;11.68;45.77
58239;BME280;44037;55.638;37.356;2022-09-09T13:06:23;100179.72;;;11.74;45.53
58239;BME280;44037;55.638;37.356;2022-09-09T13:08:51;100182.19;;;11.63;45.56
58239;BME280;44037;55.638;37.356;2022-09-09T13:11:21;100191.44;;;11.46;46.16
58239;BME280;44037;55.638;37.356;2022-09-09T13:13:52;100184.41;;;11.37;45.70